YSSY/SYD METAR and TAF weather

Enter ICAO airport designator
Station Type Date Time Source
YSSY METAR 2019/04/18 22:00 UTC NOAA

YSSY 182200Z 21004KT 150V240 9999 BKN013 BKN240 19/17 Q1029


Station Type Date Time Source
YSSY Decoded METAR 2019/04/18 22:00 UTC NOAA

Sydney Airport, Australia (YSSY) 33-57S 151-11E 3M
Apr 18, 2019 - 06:00 PM EDT / 2019.04.18 2200 UTC
Wind: from the SSW (210 degrees) at 5 MPH (4 KT) (direction variable):0
Visibility: greater than 7 mile(s):0
Sky conditions: mostly cloudy
Temperature: 66 F (19 C)
Dew Point: 62 F (17 C)
Relative Humidity: 88%
Pressure (altimeter): 30.39 in. Hg (1029 hPa)
ob: YSSY 182200Z 21004KT 150V240 9999 BKN013 BKN240 19/17 Q1029
cycle: 22

Station Type Date Time Source
YSSY TAF 2019/04/18 18:03 UTC NOAA

TAF YSSY 181638Z 1818/1924 23008KT 9999 SCT020
FM190000 15010KT 9999 SCT025
FM190300 12010KT CAVOK
FM191200 23005KT 9999 SCT025
FM191800 27005KT 9999 SCT025

Example: see airport list